Redstar, Mississippi
Current Conditions -  °F | °C
As of 4:35 AM on Thursday 29 Jan 2015 (Local Time) from K1R7 Reporting Station
NA  
Wind Chill:   Ceiling: NA
Heat Index:   Visibility: NA
Dew Point:   Wind: 5mph
Humidity: 93%   Direction: 210°SSW
Pressure: 30.2"   Gusts: NA
Location:  31.5898°N, 90.4722°W
Report Text: K1R7 291035Z AUTO 21004KT 09/08 A3020 RMK AO2
Loading
Personal Weather Stations






























Interactive Weather Map New forecast layout! Learn more

10-Day Weather Forecast

Advertisements
Track Severe Weather on mobile